Elizabeth Blieler — WDG2711 — position and weather

sailwx.info

Track history (hours):
 
Tides and Currents Weather Stations Pressure Air Temp Water Temp Dewpoint Dewpoint Depression Visibility Wind Speed Wind Dir Waves Ship Positions

Elizabeth Blieler

Owner: Kelly O Towing LLC, Hull, TX. More information available from US FCC via Universal Licensing System and Coast Guard Vessel Documentation Center.

Last reported at 2017-Sep-21 18:13 UTC. Time now 2017-Sep-22 22:29 UTC.
Position N 29°50' W 091°59'.

MMSI: 367518460.

Date/timePositionNaut miles runAvg speedWind from/ knotsBaromVisibWave heightAir tempDewpointWater temp
2017-Sep-21 18:13N 29°50' W 091°59'1 6.0
2017-Sep-21 18:00N 29°49' W 092°01'3 6.2
2017-Sep-21 17:30N 29°48' W 092°04'3 6.5
2017-Sep-21 17:00N 29°47' W 092°08'4 5.9
2017-Sep-21 16:24N 29°47' W 092°12'2 4.2
2017-Sep-21 16:00N 29°48' W 092°14'1 2.0
2017-Sep-21 15:30N 29°48' W 092°15'38 5.3
2017-Sep-21 08:16N 29°56' W 092°58'1 5.4
2017-Sep-21 08:00N 29°56' W 092°60'3 5.6
2017-Sep-21 07:30N 29°56' W 093°03'1 2.1
2017-Sep-21 07:00N 29°56' W 093°04'2 4.4
2017-Sep-21 06:30N 29°56' W 093°07'3 5.1
2017-Sep-21 06:00N 29°56' W 093°10'3 5.5
2017-Sep-21 05:30N 29°58' W 093°12'3 5.4
2017-Sep-21 05:00N 30°00' W 093°14'2 5.0
2017-Sep-21 04:30N 30°02' W 093°15'3 5.4
2017-Sep-21 04:00N 30°05' W 093°17'1 2.9
2017-Sep-21 03:30N 30°06' W 093°18'1 1.2
2017-Sep-21 03:00N 30°06' W 093°18'0 0.0
2017-Sep-21 02:30N 30°06' W 093°18'0 0.0
2017-Sep-21 02:00N 30°06' W 093°18'0 0.1
2017-Sep-21 01:30N 30°06' W 093°18'0 0.0
2017-Sep-21 01:00N 30°06' W 093°18'0 0.0
2017-Sep-21 00:30N 30°06' W 093°18'0 0.0
2017-Sep-21 00:00N 30°06' W 093°18'0 0.0
2017-Sep-20 23:30N 30°06' W 093°18'0 0.0
2017-Sep-20 23:00N 30°06' W 093°18'0 0.0
2017-Sep-20 22:30N 30°06' W 093°18'0 0.0
2017-Sep-20 22:00N 30°06' W 093°18'0 0.0
2017-Sep-20 21:30N 30°06' W 093°18'0 0.0
2017-Sep-20 21:00N 30°06' W 093°18'0 0.0
2017-Sep-20 20:30N 30°06' W 093°18'0 0.0
2017-Sep-20 20:00N 30°06' W 093°18'0 0.0
2017-Sep-20 19:30N 30°06' W 093°18'0 0.0
2017-Sep-20 19:00N 30°06' W 093°18'0 0.0
2017-Sep-20 18:30N 30°06' W 093°18'0 0.0
2017-Sep-20 18:00N 30°06' W 093°18'0 0.0
2017-Sep-20 17:30N 30°06' W 093°18'0 0.0
2017-Sep-20 17:00N 30°06' W 093°18'0 0.0
2017-Sep-20 16:30N 30°06' W 093°18'0 0.0
2017-Sep-20 16:00N 30°06' W 093°18'0 0.0
2017-Sep-20 15:30N 30°06' W 093°18'0 0.0
2017-Sep-20 15:00N 30°06' W 093°18'0 0.0
2017-Sep-20 14:00N 30°06' W 093°18'0 0.0
2017-Sep-20 13:30N 30°06' W 093°18'0 0.0
2017-Sep-20 13:00N 30°06' W 093°18'0 0.0
2017-Sep-20 12:30N 30°06' W 093°18'0 0.0
2017-Sep-20 12:00N 30°06' W 093°18'0 0.0
2017-Sep-20 11:30N 30°06' W 093°18'0 0.0
2017-Sep-20 11:00N 30°06' W 093°18'0 0.0
2017-Sep-20 10:30N 30°06' W 093°18'0 0.0
2017-Sep-20 10:00N 30°06' W 093°18'0 0.0
2017-Sep-20 09:30N 30°06' W 093°18'0 0.0
2017-Sep-20 09:00N 30°06' W 093°18'0 0.0
2017-Sep-20 08:30N 30°06' W 093°18'0 0.0
2017-Sep-20 08:00N 30°06' W 093°18'0 0.0
2017-Sep-20 07:30N 30°06' W 093°18'0 0.0
2017-Sep-20 07:00N 30°06' W 093°18'0 0.0
2017-Sep-20 06:30N 30°06' W 093°18'0 0.0
2017-Sep-20 06:00N 30°06' W 093°18'0 0.0
2017-Sep-20 05:30N 30°06' W 093°18'0 0.0
2017-Sep-20 05:00N 30°06' W 093°18'0 0.0
2017-Sep-20 04:30N 30°06' W 093°18'2 4.1
2017-Sep-20 04:00N 30°05' W 093°20'3 6.0
2017-Sep-20 03:30N 30°04' W 093°23'3 6.7
2017-Sep-20 03:00N 30°04' W 093°27'3 6.6
2017-Sep-20 02:29N 30°04' W 093°31'  
2017-Sep-15 19:11N 30°03' W 093°44'1 4.8
2017-Sep-15 19:00N 30°03' W 093°43'2 4.4
2017-Sep-15 18:30N 30°04' W 093°40'2 4.5
2017-Sep-15 18:00N 30°04' W 093°38'2 4.2
2017-Sep-15 17:30N 30°04' W 093°35'2 4.0
2017-Sep-15 17:00N 30°04' W 093°33'2 4.1
2017-Sep-15 16:30N 30°04' W 093°31'2 4.1
2017-Sep-15 16:01N 30°04' W 093°28'2 4.1
2017-Sep-15 15:30N 30°04' W 093°26'2 4.1
2017-Sep-15 15:01N 30°04' W 093°24'2 3.5
2017-Sep-15 14:30N 30°04' W 093°22'2 3.3
2017-Sep-15 14:01N 30°05' W 093°20'2 4.2
2017-Sep-15 13:30N 30°06' W 093°19'1 2.5
2017-Sep-15 13:01N 30°05' W 093°17'1 2.4
2017-Sep-15 12:31N 30°04' W 093°16'2 3.2
2017-Sep-15 12:01N 30°03' W 093°16'2 4.0
2017-Sep-15 11:31N 30°02' W 093°14'2 4.0
2017-Sep-15 11:00N 29°60' W 093°13'2 4.4
2017-Sep-15 10:31N 29°58' W 093°11'3 4.4
2017-Sep-15 09:56N 29°56' W 093°10'2 4.5
2017-Sep-15 09:30N 29°56' W 093°07'38 3.9
2017-Sep-14 23:55N 29°53' W 092°24'3 2.9
2017-Sep-14 22:48N 29°51' W 092°21'1 3.4
2017-Sep-14 22:30N 29°51' W 092°20'1 3.0
2017-Sep-14 22:00N 29°50' W 092°19'2 3.5
2017-Sep-14 21:30N 29°49' W 092°17'1 1.2
2017-Sep-14 21:00N 29°49' W 092°17'1 1.3
2017-Sep-14 20:31N 29°48' W 092°16'2 3.8
2017-Sep-14 20:00N 29°48' W 092°14'2 3.6
2017-Sep-14 19:31N 29°47' W 092°12'2 3.4
2017-Sep-14 19:01N 29°47' W 092°10'2 3.8
2017-Sep-14 18:31N 29°47' W 092°08'2 4.3
2017-Sep-14 18:00N 29°48' W 092°06'60 3.6
2017-Sep-14 01:31N 29°36' W 090°58'0 4.5
2017-Sep-14 01:29N 29°36' W 090°58'2 4.4
2017-Sep-14 00:58N 29°34' W 090°56'2 4.5
2017-Sep-14 00:30N 29°33' W 090°54'2 4.3
2017-Sep-14 00:00N 29°32' W 090°52'2 4.2
2017-Sep-13 23:30N 29°32' W 090°49'2 4.1
2017-Sep-13 23:00N 29°32' W 090°47'2 3.4
2017-Sep-13 22:31N 29°33' W 090°45'2 3.4
2017-Sep-13 22:01N 29°34' W 090°44'2 3.1
2017-Sep-13 21:30N 29°35' W 090°43'1 2.5
2017-Sep-13 21:00N 29°36' W 090°43'1 2.8
2017-Sep-13 20:31N 29°36' W 090°41'2 3.9
2017-Sep-13 19:58N 29°35' W 090°39'2 4.0
2017-Sep-13 19:30N 29°35' W 090°37'2 3.6
2017-Sep-13 18:54N 29°34' W 090°34'9 0.5
2017-Sep-13 00:37N 29°33' W 090°24'2 5.0
2017-Sep-13 00:13N 29°33' W 090°26'1 5.3
2017-Sep-13 00:00N 29°33' W 090°27'3 5.1
2017-Sep-12 23:30N 29°34' W 090°30'3 5.1
2017-Sep-12 23:00N 29°34' W 090°33'2 4.9
2017-Sep-12 22:30N 29°35' W 090°36'2 4.8
2017-Sep-12 22:01N 29°35' W 090°38'2 4.7
2017-Sep-12 21:31N 29°36' W 090°41'1 2.9
2017-Sep-12 21:01N 29°36' W 090°43'3 3.6
2017-Sep-12 20:06N 29°34' W 090°45'0 5.0
2017-Sep-12 20:01N 29°33' W 090°45'2 4.4
2017-Sep-12 19:30N 29°32' W 090°47'64 3.7
2017-Sep-12 02:22N 29°50' W 091°58'2 4.8
2017-Sep-12 02:01N 29°50' W 091°60'2 4.6
2017-Sep-12 01:31N 29°49' W 092°02'2 4.7
2017-Sep-12 01:01N 29°48' W 092°05'2 4.9
2017-Sep-12 00:30N 29°47' W 092°07'2 4.7
2017-Sep-12 00:01N 29°47' W 092°10'3 5.2
2017-Sep-11 23:31N 29°47' W 092°13'4 5.3
2017-Sep-11 22:41N 29°49' W 092°17'  
Track history (hours):
 
Tides and Currents Weather Stations Pressure Air Temp Water Temp Dewpoint Dewpoint Depression Visibility Wind Speed Wind Dir Waves Ship Positions

Elizabeth Blieler

Owner: Kelly O Towing LLC, Hull, TX. More information available from US FCC via Universal Licensing System and Coast Guard Vessel Documentation Center.

Last reported at 2017-Sep-21 18:13 UTC. Time now 2017-Sep-22 22:29 UTC.
Position N 29°50' W 091°59'.

MMSI: 367518460.

Date/timePositionNaut miles runAvg speedWind from/ knotsBaromVisibWave heightAir tempDewpointWater temp
2017-Sep-21 18:13N 29°50' W 091°59'1 6.0
2017-Sep-21 18:00N 29°49' W 092°01'3 6.2
2017-Sep-21 17:30N 29°48' W 092°04'3 6.5
2017-Sep-21 17:00N 29°47' W 092°08'4 5.9
2017-Sep-21 16:24N 29°47' W 092°12'2 4.2
2017-Sep-21 16:00N 29°48' W 092°14'1 2.0
2017-Sep-21 15:30N 29°48' W 092°15'38 5.3
2017-Sep-21 08:16N 29°56' W 092°58'1 5.4
2017-Sep-21 08:00N 29°56' W 092°60'3 5.6
2017-Sep-21 07:30N 29°56' W 093°03'1 2.1
2017-Sep-21 07:00N 29°56' W 093°04'2 4.4
2017-Sep-21 06:30N 29°56' W 093°07'3 5.1
2017-Sep-21 06:00N 29°56' W 093°10'3 5.5
2017-Sep-21 05:30N 29°58' W 093°12'3 5.4
2017-Sep-21 05:00N 30°00' W 093°14'2 5.0
2017-Sep-21 04:30N 30°02' W 093°15'3 5.4
2017-Sep-21 04:00N 30°05' W 093°17'1 2.9
2017-Sep-21 03:30N 30°06' W 093°18'1 1.2
2017-Sep-21 03:00N 30°06' W 093°18'0 0.0
2017-Sep-21 02:30N 30°06' W 093°18'0 0.0
2017-Sep-21 02:00N 30°06' W 093°18'0 0.1
2017-Sep-21 01:30N 30°06' W 093°18'0 0.0
2017-Sep-21 01:00N 30°06' W 093°18'0 0.0
2017-Sep-21 00:30N 30°06' W 093°18'0 0.0
2017-Sep-21 00:00N 30°06' W 093°18'0 0.0
2017-Sep-20 23:30N 30°06' W 093°18'0 0.0
2017-Sep-20 23:00N 30°06' W 093°18'0 0.0
2017-Sep-20 22:30N 30°06' W 093°18'0 0.0
2017-Sep-20 22:00N 30°06' W 093°18'0 0.0
2017-Sep-20 21:30N 30°06' W 093°18'0 0.0
2017-Sep-20 21:00N 30°06' W 093°18'0 0.0
2017-Sep-20 20:30N 30°06' W 093°18'0 0.0
2017-Sep-20 20:00N 30°06' W 093°18'0 0.0
2017-Sep-20 19:30N 30°06' W 093°18'0 0.0
2017-Sep-20 19:00N 30°06' W 093°18'0 0.0
2017-Sep-20 18:30N 30°06' W 093°18'0 0.0
2017-Sep-20 18:00N 30°06' W 093°18'0 0.0
2017-Sep-20 17:30N 30°06' W 093°18'0 0.0
2017-Sep-20 17:00N 30°06' W 093°18'0 0.0
2017-Sep-20 16:30N 30°06' W 093°18'0 0.0
2017-Sep-20 16:00N 30°06' W 093°18'0 0.0
2017-Sep-20 15:30N 30°06' W 093°18'0 0.0
2017-Sep-20 15:00N 30°06' W 093°18'0 0.0
2017-Sep-20 14:00N 30°06' W 093°18'0 0.0
2017-Sep-20 13:30N 30°06' W 093°18'0 0.0
2017-Sep-20 13:00N 30°06' W 093°18'0 0.0
2017-Sep-20 12:30N 30°06' W 093°18'0 0.0
2017-Sep-20 12:00N 30°06' W 093°18'0 0.0
2017-Sep-20 11:30N 30°06' W 093°18'0 0.0
2017-Sep-20 11:00N 30°06' W 093°18'0 0.0
2017-Sep-20 10:30N 30°06' W 093°18'0 0.0
2017-Sep-20 10:00N 30°06' W 093°18'0 0.0
2017-Sep-20 09:30N 30°06' W 093°18'0 0.0
2017-Sep-20 09:00N 30°06' W 093°18'0 0.0
2017-Sep-20 08:30N 30°06' W 093°18'0 0.0
2017-Sep-20 08:00N 30°06' W 093°18'0 0.0
2017-Sep-20 07:30N 30°06' W 093°18'0 0.0
2017-Sep-20 07:00N 30°06' W 093°18'0 0.0
2017-Sep-20 06:30N 30°06' W 093°18'0 0.0
2017-Sep-20 06:00N 30°06' W 093°18'0 0.0
2017-Sep-20 05:30N 30°06' W 093°18'0 0.0
2017-Sep-20 05:00N 30°06' W 093°18'0 0.0
2017-Sep-20 04:30N 30°06' W 093°18'2 4.1
2017-Sep-20 04:00N 30°05' W 093°20'3 6.0
2017-Sep-20 03:30N 30°04' W 093°23'3 6.7
2017-Sep-20 03:00N 30°04' W 093°27'3 6.6
2017-Sep-20 02:29N 30°04' W 093°31'  
2017-Sep-15 19:11N 30°03' W 093°44'1 4.8
2017-Sep-15 19:00N 30°03' W 093°43'2 4.4
2017-Sep-15 18:30N 30°04' W 093°40'2 4.5
2017-Sep-15 18:00N 30°04' W 093°38'2 4.2
2017-Sep-15 17:30N 30°04' W 093°35'2 4.0
2017-Sep-15 17:00N 30°04' W 093°33'2 4.1
2017-Sep-15 16:30N 30°04' W 093°31'2 4.1
2017-Sep-15 16:01N 30°04' W 093°28'2 4.1
2017-Sep-15 15:30N 30°04' W 093°26'2 4.1
2017-Sep-15 15:01N 30°04' W 093°24'2 3.5
2017-Sep-15 14:30N 30°04' W 093°22'2 3.3
2017-Sep-15 14:01N 30°05' W 093°20'2 4.2
2017-Sep-15 13:30N 30°06' W 093°19'1 2.5
2017-Sep-15 13:01N 30°05' W 093°17'1 2.4
2017-Sep-15 12:31N 30°04' W 093°16'2 3.2
2017-Sep-15 12:01N 30°03' W 093°16'2 4.0
2017-Sep-15 11:31N 30°02' W 093°14'2 4.0
2017-Sep-15 11:00N 29°60' W 093°13'2 4.4
2017-Sep-15 10:31N 29°58' W 093°11'3 4.4
2017-Sep-15 09:56N 29°56' W 093°10'2 4.5
2017-Sep-15 09:30N 29°56' W 093°07'38 3.9
2017-Sep-14 23:55N 29°53' W 092°24'3 2.9
2017-Sep-14 22:48N 29°51' W 092°21'1 3.4
2017-Sep-14 22:30N 29°51' W 092°20'1 3.0
2017-Sep-14 22:00N 29°50' W 092°19'2 3.5
2017-Sep-14 21:30N 29°49' W 092°17'1 1.2
2017-Sep-14 21:00N 29°49' W 092°17'1 1.3
2017-Sep-14 20:31N 29°48' W 092°16'2 3.8
2017-Sep-14 20:00N 29°48' W 092°14'2 3.6
2017-Sep-14 19:31N 29°47' W 092°12'2 3.4
2017-Sep-14 19:01N 29°47' W 092°10'2 3.8
2017-Sep-14 18:31N 29°47' W 092°08'2 4.3
2017-Sep-14 18:00N 29°48' W 092°06'60 3.6
2017-Sep-14 01:31N 29°36' W 090°58'0 4.5
2017-Sep-14 01:29N 29°36' W 090°58'2 4.4
2017-Sep-14 00:58N 29°34' W 090°56'2 4.5
2017-Sep-14 00:30N 29°33' W 090°54'2 4.3
2017-Sep-14 00:00N 29°32' W 090°52'2 4.2
2017-Sep-13 23:30N 29°32' W 090°49'2 4.1
2017-Sep-13 23:00N 29°32' W 090°47'2 3.4
2017-Sep-13 22:31N 29°33' W 090°45'2 3.4
2017-Sep-13 22:01N 29°34' W 090°44'2 3.1
2017-Sep-13 21:30N 29°35' W 090°43'1 2.5
2017-Sep-13 21:00N 29°36' W 090°43'1 2.8
2017-Sep-13 20:31N 29°36' W 090°41'2 3.9
2017-Sep-13 19:58N 29°35' W 090°39'2 4.0
2017-Sep-13 19:30N 29°35' W 090°37'2 3.6
2017-Sep-13 18:54N 29°34' W 090°34'9 0.5
2017-Sep-13 00:37N 29°33' W 090°24'2 5.0
2017-Sep-13 00:13N 29°33' W 090°26'1 5.3
2017-Sep-13 00:00N 29°33' W 090°27'3 5.1
2017-Sep-12 23:30N 29°34' W 090°30'3 5.1
2017-Sep-12 23:00N 29°34' W 090°33'2 4.9
2017-Sep-12 22:30N 29°35' W 090°36'2 4.8
2017-Sep-12 22:01N 29°35' W 090°38'2 4.7
2017-Sep-12 21:31N 29°36' W 090°41'1 2.9
2017-Sep-12 21:01N 29°36' W 090°43'3 3.6
2017-Sep-12 20:06N 29°34' W 090°45'0 5.0
2017-Sep-12 20:01N 29°33' W 090°45'2 4.4
2017-Sep-12 19:30N 29°32' W 090°47'64 3.7
2017-Sep-12 02:22N 29°50' W 091°58'2 4.8
2017-Sep-12 02:01N 29°50' W 091°60'2 4.6
2017-Sep-12 01:31N 29°49' W 092°02'2 4.7
2017-Sep-12 01:01N 29°48' W 092°05'2 4.9
2017-Sep-12 00:30N 29°47' W 092°07'2 4.7
2017-Sep-12 00:01N 29°47' W 092°10'3 5.2
2017-Sep-11 23:31N 29°47' W 092°13'4 5.3
2017-Sep-11 22:41N 29°49' W 092°17'  

Dump ship's entire track history